Time;durP1;ratioP1;P1;durP2;ratioP2;P2;SDS_P1;SDS_P2;PMS_P1;PMS_P2;Temp;Humidity;BMP_temperature;BMP_pressure;BME280_temperature;BME280_humidity;BME280_pressure;Samples;Min_cycle;Max_cycle;Signal;HPM_P1;HPM_P2
2024/04/25 00:01:29;;;;;;;2.40;2.20;;;23.80;99.90;;;;;;5395002;21;20152;-50
2024/04/25 00:03:55;;;;;;;3.90;2.55;;;23.80;99.90;;;;;;5381384;26;20073;-53
2024/04/25 00:06:21;;;;;;;4.20;2.50;;;23.80;99.90;;;;;;5381363;26;20000;-51
2024/04/25 00:08:47;;;;;;;3.67;2.83;;;23.80;99.90;;;;;;5381058;26;19996;-50
2024/04/25 00:11:17;;;;;;;6.55;3.00;;;23.80;99.90;;;;;;5380982;26;19996;-49
2024/04/25 00:13:43;;;;;;;3.13;2.40;;;23.80;99.90;;;;;;5380599;26;20055;-50
2024/04/25 00:16:09;;;;;;;4.13;2.33;;;23.80;99.90;;;;;;5380938;26;20008;-50
2024/04/25 00:18:34;;;;;;;4.70;2.38;;;23.80;99.90;;;;;;5408855;26;20008;-50
2024/04/25 00:21:01;;;;;;;4.28;2.70;;;23.80;99.90;;;;;;5380900;26;20012;-50
2024/04/25 00:23:27;;;;;;;4.43;2.20;;;23.70;99.90;;;;;;5380796;26;20007;-50
2024/04/25 00:25:53;;;;;;;3.65;2.33;;;23.70;99.90;;;;;;5381098;26;20011;-50
2024/04/25 00:28:19;;;;;;;5.25;3.20;;;23.70;99.90;;;;;;5380720;26;20436;-50
2024/04/25 00:30:46;;;;;;;3.80;2.60;;;23.70;99.90;;;;;;5380723;26;20325;-50
2024/04/25 00:33:11;;;;;;;4.18;2.40;;;23.70;99.90;;;;;;5380755;26;20447;-50
2024/04/25 00:35:37;;;;;;;3.25;2.45;;;23.70;99.90;;;;;;5380820;26;20073;-50
2024/04/25 00:38:03;;;;;;;5.18;2.63;;;23.70;99.90;;;;;;5380652;26;20011;-50
2024/04/25 00:40:29;;;;;;;3.47;2.38;;;23.70;99.90;;;;;;5380664;26;20012;-53
2024/04/25 00:42:57;;;;;;;4.07;2.30;;;23.70;99.90;;;;;;5380869;26;20006;-51
2024/04/25 00:45:22;;;;;;;4.70;2.53;;;23.70;99.90;;;;;;5380828;26;20451;-51
2024/04/25 00:47:49;;;;;;;3.63;2.95;;;23.70;99.90;;;;;;5380770;26;19996;-51
2024/04/25 00:50:16;;;;;;;4.63;2.90;;;23.70;99.90;;;;;;5379107;26;20441;-51
2024/04/25 00:52:42;;;;;;;3.95;2.97;;;23.70;99.90;;;;;;5380693;26;20270;-51
2024/04/25 00:55:08;;;;;;;3.38;2.97;;;23.70;99.90;;;;;;5380661;26;20000;-51
2024/04/25 00:57:37;;;;;;;4.30;2.53;;;23.70;99.90;;;;;;5380418;26;20000;-51
2024/04/25 01:02:40;;;;;;;3.47;2.42;;;23.70;99.90;;;;;;5308839;27;20033;-50
2024/04/25 01:05:07;;;;;;;3.17;2.47;;;23.60;99.90;;;;;;5311185;27;20009;-49
2024/04/25 01:07:33;;;;;;;4.20;2.70;;;23.60;99.90;;;;;;5311102;27;20361;-51
2024/04/25 01:09:59;;;;;;;3.92;2.80;;;23.60;99.90;;;;;;5309079;27;19994;-50
2024/04/25 01:12:26;;;;;;;4.68;2.75;;;23.70;99.90;;;;;;5310719;27;20008;-51
2024/04/25 01:14:52;;;;;;;4.13;2.78;;;23.60;99.90;;;;;;5309117;27;19997;-51
2024/04/25 01:17:18;;;;;;;2.88;2.50;;;23.60;99.90;;;;;;5305987;27;20009;-51
2024/04/25 01:19:44;;;;;;;4.00;3.05;;;23.60;99.90;;;;;;5295924;26;20005;-51
2024/04/25 01:22:11;;;;;;;4.18;2.75;;;23.60;99.90;;;;;;5293838;26;20045;-51
2024/04/25 01:24:37;;;;;;;3.45;2.63;;;23.60;99.90;;;;;;5291117;27;20338;-51
2024/04/25 01:27:04;;;;;;;3.80;3.05;;;23.60;99.90;;;;;;5271344;27;20002;-50
2024/04/25 01:29:32;;;;;;;3.25;2.65;;;23.60;99.90;;;;;;5310068;26;20002;-51
2024/04/25 01:31:59;;;;;;;4.28;2.80;;;23.60;99.90;;;;;;5309836;26;20449;-50
2024/04/25 01:34:25;;;;;;;2.88;2.40;;;23.60;99.90;;;;;;5310346;26;20049;-50
2024/04/25 01:36:52;;;;;;;3.63;2.92;;;23.60;99.90;;;;;;5310149;27;20002;-51
2024/04/25 01:39:18;;;;;;;3.45;2.85;;;23.60;99.90;;;;;;5310312;26;20024;-51
2024/04/25 01:41:44;;;;;;;4.05;2.67;;;23.50;99.90;;;;;;5311348;26;20442;-51
2024/04/25 01:44:10;;;;;;;3.30;2.88;;;23.50;99.90;;;;;;5310660;27;20611;-52
2024/04/25 01:46:37;;;;;;;3.95;2.63;;;23.50;99.90;;;;;;5310577;27;19998;-50
2024/04/25 01:49:03;;;;;;;4.18;2.58;;;23.50;99.90;;;;;;5310105;27;20012;-51
2024/04/25 01:51:29;;;;;;;5.13;2.95;;;23.50;99.90;;;;;;5309869;27;20442;-50
2024/04/25 01:53:55;;;;;;;4.45;2.83;;;23.50;99.90;;;;;;5309818;27;20434;-50
2024/04/25 01:56:20;;;;;;;4.57;3.50;;;23.50;99.90;;;;;;5310214;27;20073;-50
2024/04/25 01:58:46;;;;;;;3.88;2.50;;;23.50;99.90;;;;;;5313368;27;20029;-50
2024/04/25 02:01:12;;;;;;;5.00;3.03;;;23.50;99.90;;;;;;5278283;27;20077;-51
2024/04/25 02:03:38;;;;;;;4.32;3.03;;;23.50;99.90;;;;;;5279488;27;19998;-51
2024/04/25 02:06:05;;;;;;;4.63;2.88;;;23.50;99.90;;;;;;5279426;27;20073;-52
2024/04/25 02:08:31;;;;;;;4.07;3.30;;;23.50;99.90;;;;;;5279441;27;20443;-50
2024/04/25 02:10:56;;;;;;;4.63;2.92;;;23.50;99.90;;;;;;5279344;27;19999;-50
2024/04/25 02:13:22;;;;;;;4.28;2.67;;;23.50;99.90;;;;;;5279092;27;20053;-50
2024/04/25 02:15:48;;;;;;;5.13;2.80;;;23.50;99.90;;;;;;5279065;27;19998;-50
2024/04/25 02:18:14;;;;;;;5.45;2.85;;;23.50;99.90;;;;;;5279556;27;19999;-50
2024/04/25 02:26:10;;;;;;;4.05;2.95;;;23.40;99.90;;;;;;5279085;27;20014;-51
2024/04/25 02:28:36;;;;;;;3.65;2.83;;;23.40;99.90;;;;;;5279276;27;20509;-50
2024/04/25 02:31:02;;;;;;;3.83;2.72;;;23.40;99.90;;;;;;5279081;27;20009;-51
2024/04/25 02:33:28;;;;;;;4.10;2.70;;;23.40;99.90;;;;;;5279479;27;20006;-51
2024/04/25 02:35:54;;;;;;;4.22;2.75;;;23.40;99.90;;;;;;5279302;27;20022;-51
2024/04/25 02:38:20;;;;;;;3.85;2.80;;;23.40;99.90;;;;;;5305759;27;20034;-51
2024/04/25 02:40:46;;;;;;;4.50;2.70;;;23.40;99.90;;;;;;5279224;27;20406;-51
2024/04/25 02:43:12;;;;;;;3.53;2.83;;;23.40;99.90;;;;;;5279109;27;20447;-51
2024/04/25 02:45:38;;;;;;;3.78;3.03;;;23.40;99.90;;;;;;5278871;27;20021;-52
2024/04/25 02:48:05;;;;;;;4.35;2.83;;;23.40;99.90;;;;;;5278785;27;20076;-50
2024/04/25 02:50:30;;;;;;;4.03;3.13;;;23.40;99.90;;;;;;5278968;27;19998;-51
2024/04/25 02:52:56;;;;;;;3.58;2.85;;;23.40;99.90;;;;;;5278632;27;20002;-51
2024/04/25 02:55:23;;;;;;;4.15;3.05;;;23.40;99.90;;;;;;5278935;27;20107;-52
2024/04/25 02:57:49;;;;;;;3.55;2.42;;;23.40;99.90;;;;;;5277035;27;19998;-51
2024/04/25 03:00:21;;;;;;;4.97;3.20;;;23.40;99.90;;;;;;5279015;27;20013;-52
2024/04/25 03:02:47;;;;;;;5.18;3.10;;;23.30;99.90;;;;;;5279267;27;20458;-51
2024/04/25 03:05:12;;;;;;;3.40;2.35;;;23.30;99.90;;;;;;5278645;27;19998;-51
2024/04/25 03:07:38;;;;;;;3.20;2.85;;;23.30;99.90;;;;;;5278537;27;20002;-52
2024/04/25 03:10:04;;;;;;;4.03;3.00;;;23.30;99.90;;;;;;5278590;27;20462;-52
2024/04/25 03:12:31;;;;;;;3.28;2.50;;;23.30;99.90;;;;;;5278511;27;20073;-53
2024/04/25 03:14:57;;;;;;;4.13;3.10;;;23.30;99.90;;;;;;5276741;27;20013;-53
2024/04/25 03:17:23;;;;;;;4.50;3.03;;;23.30;99.90;;;;;;5278549;27;19998;-53
2024/04/25 03:19:49;;;;;;;3.72;2.40;;;23.30;99.90;;;;;;5278433;27;20003;-50
2024/04/25 03:22:15;;;;;;;3.97;2.67;;;23.40;99.90;;;;;;5278804;27;20010;-51
2024/04/25 03:24:40;;;;;;;3.50;2.45;;;23.30;99.90;;;;;;5278474;27;20002;-52
2024/04/25 03:27:06;;;;;;;4.13;2.65;;;23.30;99.90;;;;;;5278488;27;20321;-50
2024/04/25 03:29:32;;;;;;;3.20;2.28;;;23.30;99.90;;;;;;5278105;27;20013;-51
2024/04/25 03:31:58;;;;;;;3.53;2.90;;;23.30;99.90;;;;;;5278367;27;19999;-52
2024/04/25 03:34:24;;;;;;;3.58;2.63;;;23.30;99.90;;;;;;5278280;27;20022;-52
2024/04/25 03:36:50;;;;;;;7.10;2.75;;;23.30;99.90;;;;;;5278358;27;20075;-52
2024/04/25 03:39:20;;;;;;;3.70;2.60;;;23.30;99.90;;;;;;5276695;27;20418;-52
2024/04/25 03:41:47;;;;;;;2.90;2.40;;;23.30;99.90;;;;;;5278283;27;20332;-52
2024/04/25 03:44:12;;;;;;;4.70;2.60;;;23.30;99.90;;;;;;5278041;27;20447;-52
2024/04/25 03:46:38;;;;;;;3.78;2.72;;;23.30;99.90;;;;;;5278212;27;20029;-53
2024/04/25 03:49:04;;;;;;;3.30;2.60;;;23.30;99.90;;;;;;5278220;27;19998;-52
2024/04/25 03:51:30;;;;;;;3.67;2.63;;;23.30;99.90;;;;;;5277925;27;19999;-52
2024/04/25 03:53:55;;;;;;;3.95;2.42;;;23.20;99.90;;;;;;5277815;27;20012;-52
2024/04/25 03:56:21;;;;;;;3.72;2.50;;;23.20;99.90;;;;;;5278066;27;20002;-53
2024/04/25 03:58:47;;;;;;;3.30;2.70;;;23.20;99.90;;;;;;5278597;27;20014;-52
2024/04/25 04:01:13;;;;;;;2.83;2.17;;;23.20;99.90;;;;;;5290533;27;20435;-51
2024/04/25 04:03:39;;;;;;;3.90;2.40;;;23.20;99.90;;;;;;5310956;27;20001;-51
2024/04/25 04:06:05;;;;;;;4.68;2.63;;;23.20;99.90;;;;;;5311834;27;20009;-52
2024/04/25 04:08:30;;;;;;;3.60;2.70;;;23.20;99.90;;;;;;5311898;27;20006;-51
2024/04/25 04:10:56;;;;;;;3.63;2.50;;;23.20;99.90;;;;;;5311879;27;20068;-51
2024/04/25 04:13:22;;;;;;;2.72;2.17;;;23.20;99.90;;;;;;5311785;27;19998;-52
2024/04/25 04:15:48;;;;;;;4.90;2.40;;;23.20;99.90;;;;;;5281880;27;20333;-52
2024/04/25 04:18:14;;;;;;;3.28;2.50;;;23.20;99.90;;;;;;5311792;27;20026;-51
2024/04/25 04:20:40;;;;;;;3.78;2.70;;;23.20;99.90;;;;;;5311739;27;19998;-51
2024/04/25 04:23:06;;;;;;;3.60;2.85;;;23.20;99.90;;;;;;5312053;27;19997;-51
2024/04/25 04:25:32;;;;;;;4.28;2.67;;;23.20;99.90;;;;;;5311613;27;20013;-50
2024/04/25 04:27:58;;;;;;;7.28;2.83;;;23.20;99.90;;;;;;5311546;27;20013;-50
2024/04/25 04:30:23;;;;;;;4.20;2.35;;;23.20;99.90;;;;;;5281351;27;20016;-49
2024/04/25 04:32:49;;;;;;;3.90;2.47;;;23.20;99.90;;;;;;5281312;27;20064;-49
2024/04/25 04:35:15;;;;;;;3.05;2.22;;;23.20;99.90;;;;;;5281620;27;19998;-50
2024/04/25 04:37:41;;;;;;;3.95;2.38;;;23.10;99.90;;;;;;5311468;27;20001;-50
2024/04/25 04:40:07;;;;;;;2.67;2.13;;;23.20;99.90;;;;;;5311332;27;20008;-51
2024/04/25 04:42:33;;;;;;;3.60;2.38;;;23.20;99.90;;;;;;5281618;27;20088;-51
2024/04/25 04:44:59;;;;;;;2.83;2.33;;;23.20;99.90;;;;;;5311632;27;20046;-51
2024/04/25 04:47:24;;;;;;;4.10;2.55;;;23.20;99.90;;;;;;5311538;27;20009;-50
2024/04/25 04:49:50;;;;;;;3.53;2.78;;;23.20;99.90;;;;;;5311621;27;19997;-51
2024/04/25 04:52:18;;;;;;;5.18;2.40;;;23.10;99.90;;;;;;5311334;27;20013;-52
2024/04/25 04:54:44;;;;;;;4.43;2.53;;;23.20;99.90;;;;;;5311281;27;20483;-52
2024/04/25 04:57:10;;;;;;;3.92;2.30;;;23.10;99.90;;;;;;5311148;27;20005;-52
2024/04/25 04:59:35;;;;;;;2.78;2.25;;;23.10;99.90;;;;;;5309370;26;20009;-52
2024/04/25 05:02:02;;;;;;;4.60;2.72;;;23.10;99.90;;;;;;5289808;27;20017;-52
2024/04/25 05:04:28;;;;;;;3.40;2.45;;;23.10;99.90;;;;;;5280159;26;20035;-52
2024/04/25 05:06:54;;;;;;;3.63;2.30;;;23.10;99.90;;;;;;5294861;26;20026;-52
2024/04/25 05:09:20;;;;;;;3.23;2.20;;;23.10;99.90;;;;;;5301134;26;20005;-53
2024/04/25 05:11:46;;;;;;;5.05;2.55;;;23.10;99.90;;;;;;5290169;26;20448;-55
2024/04/25 05:14:13;;;;;;;2.47;2.05;;;23.10;99.90;;;;;;5273211;27;19998;-52
2024/04/25 05:16:38;;;;;;;4.60;2.63;;;23.10;99.90;;;;;;5245300;27;20517;-52
2024/04/25 05:19:04;;;;;;;3.42;2.50;;;23.00;99.90;;;;;;5276604;27;20007;-52
2024/04/25 05:21:32;;;;;;;2.28;2.08;;;23.10;99.90;;;;;;5276527;27;20013;-50
2024/04/25 05:23:59;;;;;;;3.13;2.45;;;23.10;99.90;;;;;;5247478;27;20002;-51
2024/04/25 05:26:25;;;;;;;5.07;2.67;;;23.00;99.90;;;;;;5276557;27;20038;-51
2024/04/25 05:28:51;;;;;;;3.58;2.78;;;23.00;99.90;;;;;;5279864;27;20009;-50
2024/04/25 05:31:16;;;;;;;4.60;3.28;;;23.00;99.90;;;;;;5278272;27;20073;-50
2024/04/25 05:33:47;;;;;;;4.82;3.05;;;23.00;99.90;;;;;;5279739;27;20432;-52
2024/04/25 05:36:13;;;;;;;4.63;2.28;;;23.00;99.90;;;;;;5280148;27;20010;-52
2024/04/25 05:38:39;;;;;;;3.08;2.42;;;23.00;99.90;;;;;;5279741;27;20183;-53
2024/04/25 05:41:04;;;;;;;2.65;2.22;;;23.00;99.90;;;;;;5278049;27;20509;-52
2024/04/25 05:43:30;;;;;;;4.53;2.38;;;23.00;99.90;;;;;;5279624;27;20013;-51
2024/04/25 05:45:58;;;;;;;3.55;2.45;;;23.00;99.90;;;;;;5279908;27;20002;-52
2024/04/25 05:48:24;;;;;;;3.92;2.20;;;23.00;99.90;;;;;;5279775;27;20030;-52
2024/04/25 05:50:49;;;;;;;3.83;2.10;;;23.00;99.90;;;;;;5279547;27;20489;-51
2024/04/25 05:53:15;;;;;;;4.75;3.15;;;23.00;99.90;;;;;;5279361;27;20006;-51
2024/04/25 05:55:42;;;;;;;3.65;2.47;;;23.00;99.90;;;;;;5279530;27;20012;-50
2024/04/25 05:58:08;;;;;;;2.53;1.90;;;23.00;99.90;;;;;;5279465;27;20458;-52
2024/04/25 06:00:34;;;;;;;3.83;3.10;;;23.00;99.90;;;;;;5279489;27;20328;-51
2024/04/25 06:03:01;;;;;;;2.92;2.65;;;23.00;99.90;;;;;;5279469;27;20077;-51
2024/04/25 06:05:27;;;;;;;3.65;2.88;;;23.00;99.90;;;;;;5279798;27;20010;-52
2024/04/25 06:07:53;;;;;;;3.33;2.60;;;23.00;99.90;;;;;;5250023;27;20335;-51
2024/04/25 06:10:21;;;;;;;3.80;2.55;;;23.00;99.90;;;;;;5279551;27;20307;-51
2024/04/25 06:12:47;;;;;;;4.55;2.70;;;22.90;99.90;;;;;;5277748;27;19998;-52
2024/04/25 06:15:14;;;;;;;4.22;2.53;;;23.00;99.90;;;;;;5249970;27;20014;-53
2024/04/25 06:17:43;;;;;;;3.83;2.55;;;23.00;99.90;;;;;;5279234;27;20013;-53
2024/04/25 06:20:11;;;;;;;4.15;2.95;;;23.00;99.90;;;;;;5249434;27;20002;-52
2024/04/25 06:22:38;;;;;;;4.18;2.33;;;23.00;99.90;;;;;;5279332;27;20328;-51
2024/04/25 06:25:05;;;;;;;4.73;2.30;;;22.90;99.90;;;;;;5279262;27;20013;-50
2024/04/25 06:27:32;;;;;;;4.88;3.30;;;22.90;99.90;;;;;;5278871;27;20242;-50
2024/04/25 06:29:57;;;;;;;3.83;2.63;;;23.00;99.90;;;;;;5279353;27;19999;-50
2024/04/25 06:32:24;;;;;;;7.15;3.05;;;23.00;99.90;;;;;;5278978;27;19998;-50
2024/04/25 06:34:53;;;;;;;5.07;2.70;;;23.00;99.90;;;;;;5279063;27;20096;-51
2024/04/25 06:37:19;;;;;;;3.70;2.70;;;23.00;99.90;;;;;;5279065;27;20017;-51
2024/04/25 06:39:46;;;;;;;3.28;2.80;;;22.90;99.90;;;;;;5249422;27;20003;-51
2024/04/25 06:42:12;;;;;;;5.35;3.05;;;22.90;99.90;;;;;;5279020;27;20457;-50
2024/04/25 06:44:40;;;;;;;3.83;2.58;;;22.90;99.90;;;;;;5278913;27;20002;-51
2024/04/25 06:47:08;;;;;;;4.70;2.83;;;22.90;99.90;;;;;;5277158;27;20002;-52
2024/04/25 06:49:34;;;;;;;3.63;3.10;;;22.90;99.90;;;;;;5278695;27;20094;-51
2024/04/25 06:52:01;;;;;;;4.88;2.70;;;22.90;99.90;;;;;;5278604;27;20009;-50
2024/04/25 06:54:27;;;;;;;3.90;2.65;;;22.90;99.90;;;;;;5277129;27;20430;-50
2024/04/25 06:56:53;;;;;;;3.75;3.13;;;22.90;99.90;;;;;;5278805;27;20002;-50
2024/04/25 06:59:19;;;;;;;3.67;3.10;;;22.90;99.90;;;;;;5278540;27;20397;-51
2024/04/25 07:01:49;;;;;;;4.30;2.70;;;22.90;99.90;;;;;;5276933;27;20012;-50
2024/04/25 07:04:15;;;;;;;4.53;2.85;;;22.90;99.90;;;;;;5248786;27;20002;-50
2024/04/25 07:06:40;;;;;;;3.42;2.90;;;22.90;99.90;;;;;;5278590;27;20081;-51
2024/04/25 07:09:07;;;;;;;3.90;2.83;;;22.90;99.90;;;;;;5276960;27;20013;-51
2024/04/25 07:11:36;;;;;;;5.90;3.00;;;22.90;99.90;;;;;;5278553;27;20391;-50
2024/04/25 07:14:02;;;;;;;4.38;3.00;;;22.90;99.90;;;;;;5278412;27;20003;-51
2024/04/25 07:16:28;;;;;;;3.72;2.75;;;22.90;99.90;;;;;;5278656;27;20010;-51
2024/04/25 07:18:55;;;;;;;5.13;2.97;;;22.90;99.90;;;;;;5248852;27;20014;-49
2024/04/25 07:21:23;;;;;;;5.18;3.47;;;22.90;99.90;;;;;;5278541;27;20014;-50
2024/04/25 07:23:49;;;;;;;7.15;3.60;;;22.90;99.90;;;;;;5278379;27;20434;-49
2024/04/25 07:26:15;;;;;;;2.97;2.65;;;22.90;99.90;;;;;;5248889;27;20388;-51
2024/04/25 07:28:41;;;;;;;4.20;2.80;;;22.90;99.90;;;;;;5278227;27;20002;-51
2024/04/25 07:31:07;;;;;;;4.55;2.67;;;22.90;99.90;;;;;;5248467;27;20003;-52
2024/04/25 07:33:32;;;;;;;3.70;2.85;;;22.90;99.90;;;;;;5278276;27;20366;-51
2024/04/25 07:35:58;;;;;;;3.67;2.65;;;22.90;99.90;;;;;;5278498;27;19999;-51
2024/04/25 07:38:24;;;;;;;6.10;3.53;;;22.90;99.90;;;;;;5276856;27;20014;-51
2024/04/25 07:40:50;;;;;;;4.35;3.00;;;22.90;99.90;;;;;;5248585;27;19999;-51
2024/04/25 07:43:15;;;;;;;4.35;3.05;;;23.00;99.90;;;;;;5278062;27;20339;-51
2024/04/25 07:45:42;;;;;;;4.95;3.20;;;22.90;99.90;;;;;;5278011;27;19999;-51
2024/04/25 07:48:08;;;;;;;6.50;3.83;;;22.90;99.90;;;;;;5248363;27;20427;-51
2024/04/25 07:50:34;;;;;;;6.40;3.13;;;22.90;99.90;;;;;;5278004;27;20009;-50
2024/04/25 07:53:00;;;;;;;4.32;3.08;;;23.00;99.90;;;;;;5278118;27;20003;-51
2024/04/25 07:55:25;;;;;;;6.95;3.63;;;22.90;99.90;;;;;;5277998;27;20002;-51
2024/04/25 07:57:51;;;;;;;6.90;3.20;;;22.90;99.90;;;;;;5277806;27;20335;-50
2024/04/25 08:00:17;;;;;;;4.18;3.20;;;23.00;99.90;;;;;;5248283;27;20010;-50
2024/04/25 08:02:43;;;;;;;7.90;3.75;;;23.00;99.90;;;;;;5277798;27;20002;-51
2024/04/25 08:05:09;;;;;;;4.35;3.33;;;23.00;99.90;;;;;;5277705;27;20450;-51
2024/04/25 08:07:39;;;;;;;4.88;3.42;;;23.00;99.90;;;;;;5277900;27;20002;-51
2024/04/25 08:10:07;;;;;;;7.40;3.20;;;23.00;99.90;;;;;;5277793;27;20543;-51
2024/04/25 08:12:33;;;;;;;4.75;3.50;;;23.00;99.90;;;;;;5277965;27;20013;-55
2024/04/25 08:14:59;;;;;;;6.07;3.60;;;23.00;99.90;;;;;;5277866;27;20038;-51
2024/04/25 08:17:27;;;;;;;6.32;3.42;;;23.00;99.90;;;;;;5277553;27;19998;-51
2024/04/25 08:19:54;;;;;;;5.95;3.30;;;23.00;99.90;;;;;;5277686;27;20007;-51
2024/04/25 08:22:22;;;;;;;4.97;3.20;;;23.00;99.90;;;;;;5277483;27;20125;-51
2024/04/25 08:24:49;;;;;;;6.30;3.70;;;23.00;99.90;;;;;;5277598;27;20009;-51
2024/04/25 08:27:15;;;;;;;4.30;3.03;;;23.00;99.90;;;;;;5277298;27;20051;-51
2024/04/25 08:29:41;;;;;;;7.38;3.50;;;23.00;99.90;;;;;;5277260;27;19999;-51
2024/04/25 08:32:07;;;;;;;6.80;4.00;;;23.00;99.90;;;;;;5277550;27;20077;-52
2024/04/25 08:34:32;;;;;;;4.30;3.10;;;23.00;99.90;;;;;;5277564;27;20010;-51
2024/04/25 08:36:58;;;;;;;6.97;3.42;;;23.00;99.90;;;;;;5297112;26;20001;-52
2024/04/25 08:39:24;;;;;;;6.82;3.67;;;23.00;99.90;;;;;;5291830;26;19998;-51
2024/04/25 08:41:51;;;;;;;5.00;3.40;;;23.00;99.90;;;;;;5297060;26;20001;-51
2024/04/25 08:44:17;;;;;;;4.07;3.30;;;23.00;99.90;;;;;;5307826;27;19994;-53
2024/04/25 08:46:45;;;;;;;5.22;3.38;;;23.00;99.90;;;;;;5277534;27;20010;-53
2024/04/25 08:49:14;;;;;;;4.80;3.13;;;23.00;99.90;;;;;;5277211;27;20002;-52
2024/04/25 08:51:40;;;;;;;7.07;3.30;;;23.00;99.90;;;;;;5307761;27;20434;-52
2024/04/25 08:54:07;;;;;;;7.90;3.55;;;23.00;99.90;;;;;;5307710;27;20001;-50
2024/04/25 08:56:33;;;;;;;4.82;3.13;;;23.00;99.90;;;;;;5306520;27;20009;-50
2024/04/25 08:58:59;;;;;;;5.20;3.15;;;23.00;99.90;;;;;;5307769;27;20457;-51
2024/04/25 09:01:27;;;;;;;3.75;2.72;;;23.00;99.90;;;;;;5307691;27;19994;-51
2024/04/25 09:03:54;;;;;;;4.28;3.10;;;23.00;99.90;;;;;;5307220;27;20071;-51
2024/04/25 09:06:21;;;;;;;;;;;23.00;99.90;;;;;;5310704;27;20512;-50
2024/04/25 09:08:48;;;;;;;6.10;3.42;;;23.00;99.90;;;;;;5310882;27;19959;-50
2024/04/25 09:11:21;;;;;;;5.30;3.13;;;23.00;99.90;;;;;;5310727;27;20319;-50
2024/04/25 09:13:57;;;;;;;4.68;3.10;;;23.00;99.90;;;;;;5310639;27;20012;-50
2024/04/25 09:16:26;;;;;;;5.75;3.10;;;23.00;99.90;;;;;;5310842;27;20454;-50
2024/04/25 09:18:53;;;;;;;4.50;2.80;;;23.00;99.90;;;;;;5310998;27;20002;-51
2024/04/25 09:21:19;;;;;;;5.05;2.42;;;23.00;99.90;;;;;;5309273;27;20002;-51
2024/04/25 09:23:45;;;;;;;3.42;2.45;;;23.00;99.90;;;;;;5310436;27;20012;-50
2024/04/25 09:26:12;;;;;;;5.78;2.97;;;23.00;99.90;;;;;;5310757;27;19998;-50
2024/04/25 09:28:42;;;;;;;6.45;2.63;;;23.00;99.90;;;;;;5310644;27;20009;-51
2024/04/25 09:31:09;;;;;;;4.28;2.95;;;23.00;99.90;;;;;;5310923;27;20001;-52
2024/04/25 09:33:35;;;;;;;4.32;3.35;;;23.00;99.90;;;;;;5310755;27;20008;-51
2024/04/25 09:36:01;;;;;;;7.38;3.13;;;23.00;99.90;;;;;;5310660;27;19997;-51
2024/04/25 09:38:27;;;;;;;3.88;2.60;;;23.00;99.90;;;;;;5308862;27;20013;-51
2024/04/25 09:40:56;;;;;;;3.75;2.72;;;23.00;99.90;;;;;;5310348;27;20462;-51
2024/04/25 09:43:24;;;;;;;4.13;2.78;;;23.00;99.90;;;;;;5310393;27;20084;-51
2024/04/25 09:45:51;;;;;;;6.97;3.58;;;23.00;99.90;;;;;;5310413;27;19998;-51
2024/04/25 09:48:19;;;;;;;5.95;2.83;;;23.00;99.90;;;;;;5308767;27;20469;-51
2024/04/25 09:50:53;;;;;;;5.47;2.78;;;23.10;99.90;;;;;;5309967;27;20005;-53
2024/04/25 09:53:32;;;;;;;4.82;3.25;;;23.00;99.90;;;;;;5310037;27;20007;-51
2024/04/25 09:56:01;;;;;;;3.67;2.90;;;23.00;99.90;;;;;;5310172;27;20013;-51
2024/04/25 09:58:44;;;;;;;3.42;2.70;;;23.10;99.90;;;;;;5309926;27;20002;-52
2024/04/25 10:01:10;;;;;;;6.07;3.20;;;23.00;99.90;;;;;;5309717;27;20013;-51
2024/04/25 10:03:38;;;;;;;5.30;3.20;;;23.10;99.90;;;;;;5313313;27;20002;-52
2024/04/25 10:06:04;;;;;;;5.45;3.08;;;23.10;99.90;;;;;;5311908;27;20008;-52
2024/04/25 10:08:30;;;;;;;5.93;3.50;;;23.10;99.90;;;;;;5313265;27;20001;-52
2024/04/25 10:10:56;;;;;;;6.40;3.53;;;23.10;99.90;;;;;;5313405;27;20034;-51
2024/04/25 10:13:25;;;;;;;6.80;3.70;;;23.10;99.90;;;;;;5311692;27;20016;-50
2024/04/25 10:15:52;;;;;;;5.07;2.90;;;23.10;99.90;;;;;;5313128;27;20072;-51
2024/04/25 10:18:18;;;;;;;6.65;3.63;;;23.10;99.90;;;;;;5312999;27;20021;-52
2024/04/25 10:20:44;;;;;;;5.13;2.85;;;23.20;99.90;;;;;;5311331;26;20319;-51
2024/04/25 10:23:11;;;;;;;7.45;3.40;;;23.10;99.90;;;;;;5313565;27;20053;-52
2024/04/25 10:25:37;;;;;;;5.32;3.45;;;23.10;99.90;;;;;;5313528;27;20491;-53
2024/04/25 10:28:08;;;;;;;6.13;3.20;;;23.20;99.90;;;;;;5312853;27;20001;-52
2024/04/25 10:30:34;;;;;;;5.03;3.60;;;23.20;99.90;;;;;;5313070;27;20009;-52
2024/04/25 10:33:00;;;;;;;5.80;3.25;;;23.20;99.90;;;;;;5312698;27;20052;-52
2024/04/25 10:35:34;;;;;;;7.30;3.50;;;23.20;99.90;;;;;;5313044;27;20434;-52
2024/04/25 10:38:00;;;;;;;5.40;3.42;;;23.20;99.90;;;;;;5282708;27;20527;-53
2024/04/25 10:40:28;;;;;;;6.05;3.70;;;23.20;99.90;;;;;;5312858;27;20002;-55
2024/04/25 10:43:00;;;;;;;6.80;4.22;;;23.20;99.90;;;;;;5312919;27;19998;-52
2024/04/25 10:45:28;;;;;;;5.57;4.43;;;23.20;99.90;;;;;;5312899;27;20009;-51
2024/04/25 10:47:54;;;;;;;;;;;23.30;99.90;;;;;;5313284;27;20002;-52
2024/04/25 10:50:20;;;;;;;5.88;3.97;;;23.30;99.90;;;;;;5313016;27;19927;-50
2024/04/25 10:52:47;;;;;;;5.30;3.60;;;23.30;99.90;;;;;;5312772;27;19993;-50
2024/04/25 10:55:13;;;;;;;9.60;4.55;;;23.30;99.90;;;;;;5312598;27;20453;-52
2024/04/25 10:57:39;;;;;;;5.97;3.83;;;23.30;99.90;;;;;;5311137;27;20332;-50
2024/04/25 11:00:06;;;;;;;6.93;4.10;;;23.30;99.90;;;;;;5312667;27;19997;-50
2024/04/25 11:02:36;;;;;;;5.38;4.00;;;23.30;99.90;;;;;;5312655;27;20350;-51
2024/04/25 11:05:02;;;;;;;6.35;3.97;;;23.30;99.90;;;;;;5312671;27;20053;-52
2024/04/25 11:07:28;;;;;;;6.80;4.18;;;23.30;99.90;;;;;;5312651;27;20413;-52
2024/04/25 11:09:57;;;;;;;5.63;3.95;;;23.30;99.90;;;;;;5312614;27;20001;-51
2024/04/25 11:12:25;;;;;;;6.90;4.13;;;23.30;99.90;;;;;;5312688;27;20009;-52
2024/04/25 11:14:51;;;;;;;6.78;3.42;;;23.30;99.90;;;;;;5309507;26;20041;-52
2024/04/25 11:17:17;;;;;;;6.13;3.28;;;23.40;99.90;;;;;;5312629;27;20002;-52
2024/04/25 11:19:44;;;;;;;7.47;4.35;;;23.40;99.90;;;;;;5312713;27;19997;-51
2024/04/25 11:22:13;;;;;;;6.82;4.15;;;23.40;99.90;;;;;;5282635;27;20009;-52
2024/04/25 11:24:39;;;;;;;6.10;3.97;;;23.40;99.90;;;;;;5312440;27;20076;-50
2024/04/25 11:27:06;;;;;;;7.35;3.67;;;23.40;99.90;;;;;;5312311;27;20029;-50
2024/04/25 11:29:32;;;;;;;6.95;3.63;;;23.40;99.90;;;;;;5310813;27;19997;-51
2024/04/25 11:31:58;;;;;;;9.48;4.35;;;23.40;99.90;;;;;;5310707;27;20097;-52
2024/04/25 11:34:25;;;;;;;5.60;3.78;;;23.40;99.90;;;;;;5310566;27;20006;-50
2024/04/25 11:37:00;;;;;;;7.55;4.28;;;23.50;99.90;;;;;;5312511;27;20012;-51
2024/04/25 11:39:34;;;;;;;7.05;4.18;;;23.50;99.90;;;;;;5312190;27;20010;-51
2024/04/25 11:42:06;;;;;;;5.95;3.58;;;23.50;99.90;;;;;;5312310;27;19997;-51
2024/04/25 11:44:33;;;;;;;6.80;3.92;;;23.50;99.90;;;;;;5312058;27;20038;-51
2024/04/25 11:47:01;;;;;;;5.50;3.35;;;23.50;99.90;;;;;;5312214;27;20538;-52
2024/04/25 11:49:27;;;;;;;;;;;23.50;99.90;;;;;;5312504;27;20031;-51
2024/04/25 11:51:53;;;;;;;8.15;4.00;;;23.50;99.90;;;;;;5311278;27;19926;-53
2024/04/25 11:54:18;;;;;;;7.15;4.35;;;23.60;99.90;;;;;;5303902;27;20004;-52
2024/04/25 11:56:44;;;;;;;6.10;3.97;;;23.60;99.90;;;;;;5308490;27;20005;-53
2024/04/25 11:59:10;;;;;;;6.70;3.90;;;23.60;99.90;;;;;;5308427;27;19993;-52
2024/04/25 12:01:36;;;;;;;7.55;3.90;;;23.60;99.90;;;;;;5308151;27;19993;-52
2024/04/25 12:04:02;;;;;;;7.85;3.92;;;23.60;99.90;;;;;;5308580;27;20303;-53
2024/04/25 12:06:28;;;;;;;7.40;4.00;;;23.60;99.90;;;;;;5306701;27;20000;-52
2024/04/25 12:08:53;;;;;;;5.25;3.85;;;23.60;99.90;;;;;;5308438;27;19998;-51
2024/04/25 12:11:19;;;;;;;7.53;3.88;;;23.60;99.90;;;;;;5310460;27;20426;-52
2024/04/25 12:13:46;;;;;;;6.90;3.92;;;23.60;99.90;;;;;;5311923;27;20064;-51
2024/04/25 12:16:12;;;;;;;7.68;4.55;;;23.70;99.90;;;;;;5312014;27;19998;-52
2024/04/25 12:18:38;;;;;;;8.32;4.28;;;23.70;99.90;;;;;;5311793;27;20004;-51
2024/04/25 12:21:05;;;;;;;6.35;4.13;;;23.60;99.90;;;;;;5310078;27;19998;-51
2024/04/25 12:23:34;;;;;;;11.93;4.72;;;23.70;99.90;;;;;;5311904;27;20009;-52
2024/04/25 12:26:01;;;;;;;10.32;5.05;;;23.60;99.90;;;;;;5309464;26;20075;-52
2024/04/25 12:28:28;;;;;;;4.28;3.40;;;23.70;99.90;;;;;;5311635;27;19997;-54
2024/04/25 12:30:54;;;;;;;9.77;4.53;;;23.70;99.90;;;;;;5311778;27;20005;-52
2024/04/25 12:33:20;;;;;;;8.02;4.78;;;23.70;99.90;;;;;;5311262;27;20002;-54
2024/04/25 12:35:45;;;;;;;7.53;4.88;;;23.70;99.90;;;;;;5311934;27;19997;-52
2024/04/25 12:38:11;;;;;;;9.07;5.07;;;23.70;99.90;;;;;;5311634;27;20012;-53
2024/04/25 12:40:37;;;;;;;9.43;5.25;;;23.70;99.90;;;;;;5311328;27;20002;-52
2024/04/25 12:43:03;;;;;;;11.25;4.50;;;23.80;99.90;;;;;;5311553;27;20072;-52
2024/04/25 12:45:34;;;;;;;7.40;4.30;;;23.80;99.90;;;;;;5311430;27;20002;-50
2024/04/25 12:48:03;;;;;;;8.15;4.97;;;23.80;99.90;;;;;;5311290;27;19997;-51
2024/04/25 12:50:29;;;;;;;7.45;4.38;;;23.80;99.90;;;;;;5311396;27;20016;-51
2024/04/25 12:52:56;;;;;;;7.18;5.22;;;23.80;99.90;;;;;;5311156;27;19998;-50